Cape Dorset, Canada
Current Conditions -  °F | °C
As of 7:00 PM on Sunday 25 Jan 2015 (Local Time) from CYTE Reporting Station
Clear Clear  
Wind Chill: -24°   Ceiling: Unl
Heat Index: -24°   Visibility: 9mi
Dew Point: -31°   Wind: 3mph
Humidity: 69%   Direction: 270°W
Pressure: 29.82"   Gusts: NA
Location:  64.23°N, 76.54°W
Report Text: CYTE 260000Z AUTO 27003KT 9SM CLR M31/M35 A2982 RMK SLP106
Loading
Personal Weather Stations






























Interactive Weather Map New forecast layout! Learn more

10-Day Weather Forecast

Advertisements
Track Severe Weather on mobile